createdAt,value
2022-08-01T00:10:36.549Z,99.90
2022-08-01T00:15:36.651Z,99.90
2022-08-01T00:25:36.654Z,99.90
2022-08-01T00:30:36.612Z,99.90
2022-08-01T00:40:37.092Z,99.90
2022-08-01T00:45:36.682Z,99.90
2022-08-01T01:10:50.578Z,99.90
2022-08-01T01:15:41.426Z,99.90
2022-08-01T01:45:37.885Z,99.90
2022-08-01T01:55:49.549Z,99.90
2022-08-01T02:00:37.212Z,99.90
2022-08-01T02:05:38.751Z,99.90
2022-08-01T02:10:37.476Z,99.90
2022-08-01T02:20:37.181Z,99.90
2022-08-01T02:30:42.909Z,99.90
2022-08-01T02:36:30.490Z,99.90
2022-08-01T02:45:42.252Z,99.90
2022-08-01T02:50:38.373Z,99.90
2022-08-01T03:45:41.057Z,99.90
2022-08-01T03:50:41.129Z,99.90
2022-08-01T03:55:41.026Z,99.90
2022-08-01T04:00:39.249Z,99.90
2022-08-01T04:45:39.020Z,99.90
2022-08-01T04:50:37.400Z,99.90
2022-08-01T04:55:37.319Z,99.90
2022-08-01T05:05:37.346Z,99.90
2022-08-01T05:20:37.690Z,99.90
2022-08-01T05:25:57.410Z,99.90
2022-08-01T05:30:38.980Z,99.90
2022-08-01T05:35:48.065Z,99.90
2022-08-01T05:45:37.545Z,99.90
2022-08-01T05:50:37.475Z,99.90
2022-08-01T05:55:37.475Z,99.90
2022-08-01T06:00:37.504Z,99.90
2022-08-01T06:05:37.588Z,99.90
2022-08-01T06:15:37.695Z,99.90
2022-08-01T06:25:37.565Z,99.90
2022-08-01T06:30:37.606Z,99.90
2022-08-01T06:35:37.563Z,99.90
2022-08-01T06:40:38.317Z,99.90
2022-08-01T06:45:39.952Z,99.90
2022-08-01T06:50:37.738Z,99.90
2022-08-01T06:55:38.698Z,99.90
2022-08-01T07:00:37.782Z,99.90
2022-08-01T07:05:37.684Z,99.90
2022-08-01T07:10:37.687Z,99.40
2022-08-01T07:15:37.692Z,99.90
2022-08-01T07:20:41.997Z,99.90
2022-08-01T07:25:37.945Z,98.60
2022-08-01T07:35:38.236Z,98.30
2022-08-01T07:40:37.871Z,97.50
2022-08-01T07:45:37.801Z,95.60
2022-08-01T07:50:37.871Z,93.90
2022-08-01T07:55:37.813Z,92.00
2022-08-01T08:05:58.297Z,89.60
2022-08-01T08:10:37.889Z,88.60
2022-08-01T08:15:38.471Z,85.60
2022-08-01T08:25:37.911Z,79.30
2022-08-01T08:30:38.002Z,78.70
2022-08-01T08:35:54.148Z,79.10
2022-08-01T08:40:38.425Z,79.30
2022-08-01T08:45:59.573Z,75.50
2022-08-01T08:50:38.349Z,72.90
2022-08-01T08:55:56.266Z,67.40
2022-08-01T09:00:40.201Z,69.20
2022-08-01T09:05:39.228Z,67.40
2022-08-01T09:10:38.103Z,66.00
2022-08-01T09:15:39.388Z,63.70
2022-08-01T09:20:38.103Z,61.00
2022-08-01T09:25:52.544Z,62.10
2022-08-01T09:30:39.580Z,59.90
2022-08-01T09:35:43.763Z,61.20
2022-08-01T09:40:46.236Z,61.50
2022-08-01T09:45:41.145Z,59.90
2022-08-01T09:50:42.073Z,58.60
2022-08-01T09:55:39.678Z,57.70
2022-08-01T10:00:45.297Z,56.10
2022-08-01T10:05:42.822Z,55.90
2022-08-01T10:15:39.382Z,53.30
2022-08-01T10:25:44.105Z,52.90
2022-08-01T10:30:41.213Z,51.20
2022-08-01T10:40:39.799Z,50.10
2022-08-01T10:45:39.910Z,48.10
2022-08-01T10:55:49.733Z,45.90
2022-08-01T11:00:38.380Z,45.30
2022-08-01T11:05:41.997Z,44.50
2022-08-01T11:10:43.103Z,42.60
2022-08-01T11:21:57.091Z,43.50
2022-08-01T11:26:03.332Z,42.30
2022-08-01T11:30:38.389Z,40.70
2022-08-01T11:35:58.299Z,38.30
2022-08-01T11:40:38.477Z,37.00
2022-08-01T11:45:50.283Z,34.50
2022-08-01T11:50:39.053Z,33.10
2022-08-01T11:55:45.106Z,32.50
2022-08-01T12:00:44.003Z,32.50
2022-08-01T12:05:43.240Z,33.40
2022-08-01T12:10:49.348Z,34.60
2022-08-01T12:15:38.575Z,35.00
2022-08-01T12:20:55.684Z,38.60
2022-08-01T12:25:40.119Z,39.30
2022-08-01T12:30:38.992Z,40.00
2022-08-01T12:35:41.592Z,40.00
2022-08-01T12:40:45.276Z,40.00
2022-08-01T12:55:58.003Z,39.70
2022-08-01T13:00:42.250Z,39.20
2022-08-01T13:05:43.844Z,38.80
2022-08-01T13:10:39.506Z,40.40
2022-08-01T13:15:41.707Z,38.10
2022-08-01T13:30:38.842Z,38.30
2022-08-01T13:40:38.813Z,39.80
2022-08-01T13:45:39.849Z,40.40
2022-08-01T13:50:38.842Z,40.70
2022-08-01T13:55:38.784Z,39.40
2022-08-01T14:00:38.876Z,40.20
2022-08-01T14:05:39.545Z,39.30
2022-08-01T14:15:39.937Z,36.80
2022-08-01T14:20:39.410Z,34.40
2022-08-01T14:26:03.940Z,36.00
2022-08-01T14:30:41.046Z,34.80
2022-08-01T14:36:01.327Z,35.10
2022-08-01T14:45:39.299Z,34.60
2022-08-01T14:50:38.943Z,34.70
2022-08-01T14:55:42.111Z,33.30
2022-08-01T15:00:39.155Z,34.60
2022-08-01T15:05:40.101Z,34.20
2022-08-01T15:15:39.062Z,33.30
2022-08-01T15:20:39.178Z,33.60
2022-08-01T15:25:41.187Z,34.10
2022-08-01T15:30:39.772Z,33.30
2022-08-01T15:35:39.664Z,32.80
2022-08-01T15:40:39.154Z,32.30
2022-08-01T15:50:39.439Z,32.00
2022-08-01T15:55:39.805Z,33.10
2022-08-01T16:00:40.067Z,33.40
2022-08-01T16:10:39.753Z,33.90
2022-08-01T16:20:45.039Z,34.30
2022-08-01T16:25:39.434Z,33.60
2022-08-01T16:35:39.508Z,34.20
2022-08-01T16:40:47.184Z,34.50
2022-08-01T16:45:42.729Z,34.80
2022-08-01T16:50:39.424Z,34.60
2022-08-01T17:00:42.091Z,35.50
2022-08-01T17:10:39.444Z,36.10
2022-08-01T17:20:40.164Z,35.70
2022-08-01T17:25:39.375Z,35.70
2022-08-01T17:40:40.730Z,36.40
2022-08-01T17:45:50.555Z,37.00
2022-08-01T18:00:40.269Z,37.70
2022-08-01T18:05:39.536Z,37.70
2022-08-01T18:10:39.812Z,38.40
2022-08-01T18:20:39.561Z,38.10
2022-08-01T18:30:39.647Z,39.70
2022-08-01T18:40:39.724Z,40.00
2022-08-01T18:45:42.519Z,40.00
2022-08-01T18:50:39.684Z,43.10
2022-08-01T19:00:39.906Z,47.50
2022-08-01T19:10:40.305Z,47.70
2022-08-01T19:20:41.791Z,48.40
2022-08-01T19:25:55.681Z,48.30
2022-08-01T19:30:39.824Z,49.60
2022-08-01T19:35:40.144Z,50.00
2022-08-01T19:40:40.348Z,50.70
2022-08-01T19:50:40.821Z,51.60
2022-08-01T20:00:41.595Z,52.30
2022-08-01T20:10:39.932Z,53.40
2022-08-01T20:15:42.222Z,53.90
2022-08-01T20:20:40.127Z,54.10
2022-08-01T20:40:42.432Z,54.90
2022-08-01T20:50:54.306Z,55.20
2022-08-01T21:00:41.257Z,56.80
2022-08-01T21:05:42.804Z,56.40
2022-08-01T21:10:42.056Z,56.80
2022-08-01T21:20:45.260Z,57.00
2022-08-01T21:30:41.479Z,56.50
2022-08-01T21:40:41.260Z,56.00
2022-08-01T21:50:52.909Z,55.30
2022-08-01T21:55:55.978Z,55.00
2022-08-01T22:00:45.849Z,55.00
2022-08-01T22:05:50.870Z,54.80
2022-08-01T22:10:40.423Z,55.60
2022-08-01T22:15:44.784Z,54.30
2022-08-01T22:20:40.282Z,54.70
2022-08-01T22:30:41.110Z,55.50
2022-08-01T22:40:47.768Z,56.30
2022-08-01T22:45:46.076Z,56.90
2022-08-01T22:50:45.106Z,57.30
2022-08-01T23:10:41.651Z,57.30
2022-08-01T23:15:41.831Z,57.20
2022-08-01T23:20:42.652Z,58.50
2022-08-01T23:25:43.084Z,58.40
2022-08-01T23:30:41.349Z,58.70
2022-08-01T23:35:40.792Z,58.10
2022-08-01T23:40:41.356Z,58.50
2022-08-01T23:50:40.538Z,59.20
